createdAt,value
2022-09-02T02:00:52.550Z,1.00
2022-09-02T02:01:13.425Z,0.90
2022-09-02T02:01:34.902Z,1.10
2022-09-02T02:01:56.425Z,0.80
2022-09-02T02:02:17.363Z,1.40
2022-09-02T02:02:37.962Z,2.00
2022-09-02T02:02:58.356Z,0.90
2022-09-02T02:03:19.486Z,1.20
2022-09-02T02:03:40.038Z,1.40
2022-09-02T02:04:00.624Z,1.80
2022-09-02T02:04:21.251Z,1.30
2022-09-02T02:04:41.801Z,2.40
2022-09-02T02:05:02.385Z,1.80
2022-09-02T02:05:22.964Z,1.00
2022-09-02T02:05:43.554Z,2.00
2022-09-02T02:06:04.138Z,1.20
2022-09-02T02:06:24.718Z,1.70
2022-09-02T02:06:45.300Z,1.70
2022-09-02T02:07:05.880Z,1.00
2022-09-02T02:07:26.464Z,1.80
2022-09-02T02:07:47.045Z,2.30
2022-09-02T02:08:07.449Z,1.30
2022-09-02T02:08:28.033Z,1.50
2022-09-02T02:08:48.619Z,1.40
2022-09-02T02:09:09.197Z,1.70
2022-09-02T02:09:29.788Z,1.20
2022-09-02T02:09:50.359Z,0.90
2022-09-02T02:10:10.943Z,1.00
2022-09-02T02:10:31.519Z,1.20
2022-09-02T02:10:52.110Z,1.20
2022-09-02T02:11:12.689Z,0.90
2022-09-02T02:11:33.272Z,1.30
2022-09-02T02:11:53.857Z,1.70
2022-09-02T02:12:14.452Z,1.70
2022-09-02T02:12:35.028Z,1.00
2022-09-02T02:12:55.625Z,2.10
2022-09-02T02:13:16.222Z,1.80
2022-09-02T02:13:36.804Z,0.70
2022-09-02T02:13:57.391Z,1.30
2022-09-02T02:14:24.652Z,1.10
2022-09-02T02:14:40.137Z,1.40
2022-09-02T02:15:00.720Z,1.50
2022-09-02T02:15:21.299Z,1.30
2022-09-02T02:15:41.885Z,1.30
2022-09-02T02:16:02.519Z,1.50
2022-09-02T02:16:23.154Z,1.50
2022-09-02T02:16:43.727Z,1.10
2022-09-02T02:17:04.307Z,1.30
2022-09-02T02:17:24.894Z,1.10
2022-09-02T02:17:45.474Z,1.50
2022-09-02T02:18:06.074Z,1.60
2022-09-02T02:18:26.653Z,1.30
2022-09-02T02:18:47.235Z,1.80
2022-09-02T02:19:07.819Z,1.20
2022-09-02T02:19:28.399Z,1.40
2022-09-02T02:19:48.985Z,1.50
2022-09-02T02:20:09.566Z,1.30
2022-09-02T02:20:30.146Z,1.60
2022-09-02T02:20:50.730Z,1.10
2022-09-02T02:21:11.123Z,1.10
2022-09-02T02:21:31.704Z,1.50
2022-09-02T02:21:52.285Z,0.90
2022-09-02T02:22:13.039Z,0.90
2022-09-02T02:22:33.620Z,0.90
2022-09-02T02:22:54.200Z,0.90
2022-09-02T02:23:14.721Z,1.40
2022-09-02T02:23:35.315Z,1.70
2022-09-02T02:23:55.904Z,1.80
2022-09-02T02:24:16.482Z,1.30
2022-09-02T02:24:37.064Z,1.60
2022-09-02T02:24:57.649Z,2.20
2022-09-02T02:25:18.232Z,1.40
2022-09-02T02:25:38.830Z,1.20
2022-09-02T02:25:59.416Z,1.50
2022-09-02T02:26:20.484Z,1.40
2022-09-02T02:26:41.105Z,1.30
2022-09-02T02:27:01.502Z,0.70
2022-09-02T02:27:22.085Z,1.20
2022-09-02T02:27:43.788Z,2.00
2022-09-02T02:28:04.475Z,0.70
2022-09-02T02:28:26.168Z,1.20
2022-09-02T02:28:46.753Z,1.50
2022-09-02T02:29:07.336Z,0.90
2022-09-02T02:29:27.920Z,1.00
2022-09-02T02:29:48.502Z,1.40
2022-09-02T02:30:09.096Z,1.20
2022-09-02T02:30:29.680Z,1.60
2022-09-02T02:30:50.268Z,0.80
2022-09-02T02:31:10.887Z,1.50
2022-09-02T02:31:31.509Z,2.00
2022-09-02T02:31:52.098Z,2.40
2022-09-02T02:32:12.681Z,1.50
2022-09-02T02:32:33.654Z,2.00
2022-09-02T02:32:54.232Z,1.90
2022-09-02T02:33:14.886Z,2.40
2022-09-02T02:33:36.233Z,1.80
2022-09-02T02:33:57.028Z,1.20
2022-09-02T02:34:17.609Z,1.40
2022-09-02T02:34:38.189Z,0.80
2022-09-02T02:34:58.777Z,0.70
2022-09-02T02:35:19.361Z,1.10
2022-09-02T02:35:39.756Z,1.40
2022-09-02T02:36:00.338Z,1.30
2022-09-02T02:36:20.923Z,1.60
2022-09-02T02:36:41.505Z,1.10
2022-09-02T02:37:02.088Z,1.20
2022-09-02T02:37:25.492Z,1.50
2022-09-02T02:37:46.255Z,2.10
2022-09-02T02:38:06.854Z,1.60
2022-09-02T02:38:27.435Z,1.20
2022-09-02T02:38:48.018Z,1.20
2022-09-02T02:39:08.604Z,1.70
2022-09-02T02:39:29.182Z,0.90
2022-09-02T02:39:49.765Z,1.50
2022-09-02T02:40:10.424Z,0.90
2022-09-02T02:40:31.083Z,1.80
2022-09-02T02:40:51.992Z,1.50
2022-09-02T02:41:12.582Z,0.90
2022-09-02T02:41:33.168Z,0.90
2022-09-02T02:41:53.749Z,1.20
2022-09-02T02:42:14.332Z,1.00
2022-09-02T02:42:34.910Z,1.40
2022-09-02T02:42:55.498Z,1.10
2022-09-02T02:43:15.909Z,1.80
2022-09-02T02:43:36.493Z,1.20
2022-09-02T02:43:57.068Z,1.00
2022-09-02T02:44:17.649Z,1.50
2022-09-02T02:44:38.231Z,2.10
2022-09-02T02:44:58.813Z,1.10
2022-09-02T02:45:19.405Z,1.90
2022-09-02T02:45:39.985Z,1.60
2022-09-02T02:46:00.591Z,1.80
2022-09-02T02:46:21.224Z,2.40
2022-09-02T02:46:41.886Z,1.00
2022-09-02T02:47:02.504Z,1.50
2022-09-02T02:47:23.041Z,0.70
2022-09-02T02:47:43.617Z,0.70
2022-09-02T02:48:04.027Z,0.60
2022-09-02T02:48:24.609Z,0.70
2022-09-02T02:48:45.196Z,1.00
2022-09-02T02:49:05.585Z,1.50
2022-09-02T02:49:26.176Z,1.40
2022-09-02T02:49:46.755Z,2.50
2022-09-02T02:50:07.339Z,1.30
2022-09-02T02:50:27.925Z,0.70
2022-09-02T02:50:48.506Z,1.00
2022-09-02T02:51:09.095Z,1.00
2022-09-02T02:51:29.669Z,1.30
2022-09-02T02:51:50.257Z,1.30
2022-09-02T02:52:10.840Z,1.10
2022-09-02T02:52:31.427Z,1.40
2022-09-02T02:52:52.007Z,0.80
2022-09-02T02:53:14.045Z,1.00
2022-09-02T02:53:35.545Z,1.00
2022-09-02T02:53:58.874Z,0.70
2022-09-02T02:54:19.674Z,1.60
2022-09-02T02:54:40.256Z,1.00
2022-09-02T02:55:00.855Z,0.90
2022-09-02T02:55:21.443Z,1.00
2022-09-02T02:55:41.838Z,2.70
2022-09-02T02:56:02.432Z,2.50
2022-09-02T02:56:23.012Z,0.80
2022-09-02T02:56:43.590Z,1.20
2022-09-02T02:57:04.177Z,1.40
2022-09-02T02:57:24.754Z,1.20
2022-09-02T02:57:45.335Z,1.20
2022-09-02T02:58:05.929Z,1.00
2022-09-02T02:58:26.525Z,0.70
2022-09-02T02:58:47.100Z,1.30
2022-09-02T02:59:07.498Z,1.90
2022-09-02T02:59:28.081Z,1.30
2022-09-02T02:59:48.665Z,1.30
2022-09-02T03:00:09.252Z,1.10
2022-09-02T03:00:29.832Z,1.20
2022-09-02T03:00:50.416Z,0.70
2022-09-02T03:01:11.003Z,1.30
2022-09-02T03:01:31.748Z,1.60
2022-09-02T03:01:52.512Z,1.30
2022-09-02T03:02:13.283Z,1.40
2022-09-02T03:02:34.033Z,1.40
2022-09-02T03:02:54.713Z,2.20
2022-09-02T03:03:15.319Z,1.70
2022-09-02T03:03:35.718Z,1.10
2022-09-02T03:03:56.305Z,1.70
2022-09-02T03:04:16.886Z,1.30
2022-09-02T03:04:37.477Z,0.90
2022-09-02T03:04:58.057Z,1.70
2022-09-02T03:05:18.643Z,0.90
2022-09-02T03:05:39.225Z,1.00
2022-09-02T03:05:59.807Z,1.00
2022-09-02T03:06:22.908Z,0.80
2022-09-02T03:06:40.798Z,1.50
2022-09-02T03:07:01.376Z,3.00
2022-09-02T03:07:21.955Z,2.40
2022-09-02T03:07:42.536Z,1.20
2022-09-02T03:08:03.133Z,1.70
2022-09-02T03:08:23.715Z,1.40
2022-09-02T03:09:31.602Z,0.80
2022-09-02T03:09:52.181Z,1.30
2022-09-02T03:10:12.576Z,1.30
2022-09-02T03:10:33.161Z,1.80
2022-09-02T03:10:53.751Z,1.00
2022-09-02T03:11:14.331Z,2.10
2022-09-02T03:11:34.732Z,2.30
2022-09-02T03:11:55.312Z,0.90
2022-09-02T03:12:15.898Z,1.10
2022-09-02T03:12:37.964Z,0.60
2022-09-02T03:12:58.538Z,0.60
2022-09-02T03:13:19.130Z,1.20
2022-09-02T03:13:39.714Z,1.00
2022-09-02T03:14:00.295Z,1.20
2022-09-02T03:15:08.180Z,1.80
2022-09-02T03:15:28.766Z,1.70
2022-09-02T03:15:49.403Z,0.80
2022-09-02T03:16:10.005Z,0.90
2022-09-02T03:16:30.625Z,1.00
2022-09-02T03:16:51.189Z,0.90
2022-09-02T03:17:11.770Z,1.20
2022-09-02T03:17:32.354Z,2.00
2022-09-02T03:17:52.935Z,1.10
2022-09-02T03:18:13.340Z,1.20
2022-09-02T03:18:33.921Z,0.70
2022-09-02T03:18:54.507Z,1.10
2022-09-02T03:19:15.085Z,0.80
2022-09-02T03:19:35.666Z,3.00
2022-09-02T03:19:56.251Z,3.00
2022-09-02T03:20:16.863Z,2.20
2022-09-02T03:20:37.448Z,2.10
2022-09-02T03:20:58.042Z,1.70
2022-09-02T03:21:18.612Z,0.70
2022-09-02T03:21:39.448Z,1.40
2022-09-02T03:22:00.027Z,1.10
2022-09-02T03:22:20.442Z,0.90
2022-09-02T03:22:41.008Z,1.40
2022-09-02T03:23:01.598Z,1.60
2022-09-02T03:23:22.305Z,1.70
2022-09-02T03:24:31.505Z,1.10
2022-09-02T03:24:52.090Z,1.60
2022-09-02T03:25:12.685Z,1.80
2022-09-02T03:25:36.089Z,1.70
2022-09-02T03:25:58.518Z,1.60
2022-09-02T03:26:19.091Z,1.10
2022-09-02T03:26:39.795Z,1.30
2022-09-02T03:27:00.379Z,1.00
2022-09-02T03:27:20.965Z,1.20
2022-09-02T03:27:41.551Z,1.70
2022-09-02T03:28:02.156Z,1.50
2022-09-02T03:28:22.736Z,1.20
2022-09-02T03:28:43.322Z,1.10
2022-09-02T03:29:03.906Z,1.20
2022-09-02T03:29:24.489Z,1.70
2022-09-02T03:29:44.890Z,2.30
2022-09-02T03:30:05.473Z,1.40
2022-09-02T03:30:26.054Z,2.20
2022-09-02T03:30:46.638Z,1.10
2022-09-02T03:31:07.292Z,1.10
2022-09-02T03:31:27.936Z,1.60
2022-09-02T03:31:48.488Z,1.40
2022-09-02T03:32:09.067Z,2.20
2022-09-02T03:32:30.568Z,2.50
2022-09-02T03:32:51.259Z,1.40
2022-09-02T03:33:11.706Z,1.40
2022-09-02T03:33:32.283Z,1.60
2022-09-02T03:33:52.867Z,1.40
2022-09-02T03:34:13.447Z,1.30
2022-09-02T03:34:34.027Z,1.70
2022-09-02T03:34:54.611Z,1.90
2022-09-02T03:35:15.198Z,1.20
2022-09-02T03:35:35.785Z,1.50
2022-09-02T03:35:56.372Z,2.30
2022-09-02T03:36:16.948Z,1.20
2022-09-02T03:36:37.528Z,0.90
2022-09-02T03:36:58.110Z,0.90
2022-09-02T03:37:18.694Z,0.90
2022-09-02T03:37:39.286Z,1.10
2022-09-02T03:37:59.681Z,1.90
2022-09-02T03:38:20.288Z,1.50
2022-09-02T03:38:40.871Z,1.90
2022-09-02T03:39:01.479Z,1.80
2022-09-02T03:39:22.075Z,1.30
2022-09-02T03:39:42.467Z,1.80
2022-09-02T03:40:03.050Z,1.90
2022-09-02T03:40:23.667Z,1.00
2022-09-02T03:40:44.430Z,1.40
2022-09-02T03:41:05.039Z,0.90
2022-09-02T03:41:25.620Z,1.60
2022-09-02T03:41:46.205Z,1.60
2022-09-02T03:42:06.789Z,1.30
2022-09-02T03:42:27.368Z,1.30
2022-09-02T03:42:47.951Z,1.00
2022-09-02T03:43:08.545Z,1.10
2022-09-02T03:43:29.126Z,1.50
2022-09-02T03:43:49.712Z,2.40
2022-09-02T03:44:57.594Z,1.50
2022-09-02T03:45:18.176Z,1.70
2022-09-02T03:45:38.840Z,1.10
2022-09-02T03:45:59.193Z,1.40
2022-09-02T03:46:19.629Z,1.40
2022-09-02T03:46:40.243Z,2.00
2022-09-02T03:47:48.123Z,2.20
2022-09-02T03:48:08.718Z,1.90
2022-09-02T03:48:29.513Z,1.40
2022-09-02T03:48:50.097Z,1.60
2022-09-02T03:49:10.676Z,2.40
2022-09-02T03:49:31.457Z,1.50
2022-09-02T03:49:52.040Z,1.00
2022-09-02T03:50:12.644Z,1.90
2022-09-02T03:50:33.223Z,1.30
2022-09-02T03:50:53.612Z,1.60
2022-09-02T03:51:14.201Z,1.70
2022-09-02T03:51:34.784Z,1.10
2022-09-02T03:51:55.368Z,1.50
2022-09-02T03:52:15.979Z,1.70
2022-09-02T03:52:36.561Z,1.50
2022-09-02T03:52:57.147Z,1.30
2022-09-02T03:53:20.135Z,3.20
2022-09-02T03:53:41.023Z,1.40
2022-09-02T03:54:01.602Z,1.30
2022-09-02T03:54:22.184Z,2.30
2022-09-02T03:54:42.768Z,2.60
2022-09-02T03:55:03.350Z,1.20
2022-09-02T03:55:24.421Z,1.00
2022-09-02T03:55:45.006Z,1.10
2022-09-02T03:56:05.587Z,0.70
2022-09-02T03:56:26.174Z,1.10
2022-09-02T03:56:46.760Z,1.50
2022-09-02T03:57:07.343Z,2.10
2022-09-02T03:57:27.921Z,1.50
2022-09-02T03:57:50.225Z,1.60
2022-09-02T03:58:10.979Z,1.20
2022-09-02T03:58:31.568Z,1.20
2022-09-02T03:58:52.748Z,1.30
2022-09-02T03:59:13.341Z,1.30
2022-09-02T03:59:33.917Z,1.20
2022-09-02T03:59:54.499Z,1.80
2022-09-02T04:00:15.081Z,1.30
2022-09-02T04:00:35.866Z,1.10
2022-09-02T04:00:56.447Z,1.90
2022-09-02T04:01:17.156Z,0.80
2022-09-02T04:01:37.809Z,1.80
2022-09-02T04:01:58.567Z,3.40
2022-09-02T04:02:19.382Z,3.20
2022-09-02T04:02:40.161Z,3.40
2022-09-02T04:03:00.847Z,2.10
2022-09-02T04:03:21.535Z,2.00
2022-09-02T04:03:41.803Z,1.90
2022-09-02T04:04:02.205Z,1.40
2022-09-02T04:04:23.027Z,1.10
2022-09-02T04:04:43.611Z,1.30
2022-09-02T04:05:04.037Z,2.40
2022-09-02T04:05:24.596Z,1.70
2022-09-02T04:05:45.185Z,0.90
2022-09-02T04:06:05.768Z,2.10
2022-09-02T04:06:26.257Z,2.10
2022-09-02T04:06:46.575Z,1.70
2022-09-02T04:07:07.152Z,1.80
2022-09-02T04:07:27.735Z,0.70
2022-09-02T04:07:48.319Z,1.10
2022-09-02T04:08:08.909Z,1.10
2022-09-02T04:08:29.517Z,0.90
2022-09-02T04:08:50.104Z,1.50
2022-09-02T04:09:10.692Z,2.10
2022-09-02T04:09:31.297Z,1.60
2022-09-02T04:09:51.907Z,1.90
2022-09-02T04:10:12.490Z,1.90
2022-09-02T04:10:33.077Z,1.40
2022-09-02T04:10:53.657Z,1.80
2022-09-02T04:11:14.265Z,1.60
2022-09-02T04:11:34.848Z,1.70
2022-09-02T04:11:55.427Z,1.30
2022-09-02T04:12:16.009Z,1.20
2022-09-02T04:12:36.589Z,1.70
2022-09-02T04:12:57.177Z,2.40
2022-09-02T04:13:17.822Z,1.60
2022-09-02T04:13:38.397Z,1.30
2022-09-02T04:13:58.979Z,2.40
2022-09-02T04:14:19.559Z,2.00
2022-09-02T04:14:40.150Z,2.60
2022-09-02T04:15:00.737Z,2.60
2022-09-02T04:15:21.319Z,2.00
2022-09-02T04:15:41.953Z,0.90
2022-09-02T04:16:02.528Z,1.20
2022-09-02T04:16:22.932Z,1.60
2022-09-02T04:16:43.551Z,1.70
2022-09-02T04:17:04.149Z,1.00
2022-09-02T04:17:24.731Z,1.40
2022-09-02T04:17:45.316Z,1.30
2022-09-02T04:18:05.928Z,1.10
2022-09-02T04:18:26.516Z,2.00
2022-09-02T04:18:48.612Z,1.30
2022-09-02T04:19:09.193Z,1.40
2022-09-02T04:19:29.776Z,1.70
2022-09-02T04:19:50.386Z,1.30
2022-09-02T04:20:10.788Z,1.00
2022-09-02T04:20:31.370Z,1.50
2022-09-02T04:20:51.963Z,1.90
2022-09-02T04:21:12.548Z,1.40
2022-09-02T04:21:33.135Z,1.60
2022-09-02T04:21:53.708Z,1.50
2022-09-02T04:22:14.291Z,1.70
2022-09-02T04:22:34.876Z,1.20
2022-09-02T04:22:55.476Z,1.70
2022-09-02T04:23:16.086Z,1.60
2022-09-02T04:23:36.465Z,1.30
2022-09-02T04:23:57.053Z,1.70
2022-09-02T04:24:17.649Z,1.10
2022-09-02T04:24:38.223Z,0.80
2022-09-02T04:24:58.808Z,1.40
2022-09-02T04:25:19.381Z,2.10
2022-09-02T04:25:39.788Z,1.90
2022-09-02T04:26:00.378Z,1.00
2022-09-02T04:26:20.957Z,0.80
2022-09-02T04:26:44.934Z,1.60
2022-09-02T04:27:05.967Z,1.90
2022-09-02T04:27:26.547Z,2.60
2022-09-02T04:27:46.945Z,1.20
2022-09-02T04:28:07.546Z,1.30
2022-09-02T04:28:28.129Z,1.90
2022-09-02T04:28:48.709Z,1.10
2022-09-02T04:29:09.288Z,1.00
2022-09-02T04:29:29.868Z,1.00
2022-09-02T04:29:50.447Z,1.20
2022-09-02T04:30:11.035Z,1.70
2022-09-02T04:30:31.621Z,2.20
2022-09-02T04:30:52.278Z,1.90
2022-09-02T04:31:12.907Z,2.00
2022-09-02T04:31:33.686Z,1.10
2022-09-02T04:31:54.317Z,2.10
2022-09-02T04:32:14.906Z,3.30
2022-09-02T04:32:40.284Z,2.50
2022-09-02T04:32:55.932Z,1.40
2022-09-02T04:33:16.590Z,1.80
2022-09-02T04:33:37.172Z,1.10
2022-09-02T04:33:57.761Z,1.50
2022-09-02T04:34:18.362Z,2.00
2022-09-02T04:34:38.945Z,2.00
2022-09-02T04:34:59.528Z,1.40
2022-09-02T04:35:20.122Z,1.20
2022-09-02T04:35:40.706Z,1.50
2022-09-02T04:36:01.304Z,2.50
2022-09-02T04:36:25.467Z,1.90
2022-09-02T04:36:49.568Z,1.00
2022-09-02T04:37:10.168Z,1.40
2022-09-02T04:37:30.753Z,1.20
2022-09-02T04:37:51.335Z,1.80
2022-09-02T04:38:11.936Z,1.50
2022-09-02T04:38:32.522Z,1.00
2022-09-02T04:38:52.917Z,1.90
2022-09-02T04:39:13.501Z,1.80
2022-09-02T04:39:34.094Z,1.40
2022-09-02T04:39:54.671Z,1.60
2022-09-02T04:40:15.287Z,0.80
2022-09-02T04:40:35.888Z,1.20
2022-09-02T04:40:56.435Z,1.50
2022-09-02T04:41:17.018Z,1.40
2022-09-02T04:41:37.606Z,1.00
2022-09-02T04:41:58.184Z,2.40
2022-09-02T04:42:18.765Z,1.90
2022-09-02T04:42:39.350Z,1.60
2022-09-02T04:42:59.931Z,1.20
2022-09-02T04:43:20.533Z,1.80
2022-09-02T04:43:41.115Z,1.50
2022-09-02T04:44:01.701Z,2.00
2022-09-02T04:44:22.280Z,0.80
2022-09-02T04:44:42.863Z,1.10
2022-09-02T04:45:03.447Z,1.20
2022-09-02T04:45:29.119Z,1.70
2022-09-02T04:45:44.501Z,1.60
2022-09-02T04:46:05.193Z,1.80
2022-09-02T04:46:34.716Z,1.10
2022-09-02T04:46:46.199Z,1.20
2022-09-02T04:47:06.780Z,1.30
2022-09-02T04:47:27.360Z,1.30
2022-09-02T04:47:47.941Z,1.00
2022-09-02T04:48:08.538Z,1.80
2022-09-02T04:48:29.124Z,1.50
2022-09-02T04:48:49.707Z,1.20
2022-09-02T04:49:10.292Z,1.40
2022-09-02T04:49:30.878Z,1.00
2022-09-02T04:49:51.460Z,2.20
2022-09-02T04:50:12.043Z,1.40
2022-09-02T04:50:32.440Z,1.10
2022-09-02T04:50:53.024Z,1.10
2022-09-02T04:51:13.608Z,1.10
2022-09-02T04:51:34.503Z,1.50
2022-09-02T04:51:54.898Z,1.60
2022-09-02T04:52:15.479Z,1.80
2022-09-02T04:52:35.873Z,1.60
2022-09-02T04:52:56.457Z,1.20
2022-09-02T04:53:17.144Z,1.50
2022-09-02T04:53:37.687Z,1.70
2022-09-02T04:53:58.264Z,1.60
2022-09-02T04:54:18.852Z,1.00
2022-09-02T04:54:39.435Z,1.80
2022-09-02T04:55:00.017Z,2.20
2022-09-02T04:55:20.598Z,2.40
2022-09-02T04:55:41.196Z,1.60
2022-09-02T04:56:01.772Z,2.40
2022-09-02T04:56:22.353Z,2.00
2022-09-02T04:56:42.937Z,1.30
2022-09-02T04:57:03.523Z,1.30
2022-09-02T04:57:24.103Z,1.70
2022-09-02T04:57:44.688Z,1.40
2022-09-02T04:58:05.282Z,1.40
2022-09-02T04:58:25.866Z,1.40
2022-09-02T04:58:46.449Z,1.80
2022-09-02T04:59:07.034Z,2.20
2022-09-02T04:59:27.614Z,1.90
2022-09-02T04:59:48.196Z,1.60
2022-09-02T05:00:08.780Z,1.30
2022-09-02T05:00:29.366Z,1.70
2022-09-02T05:00:49.947Z,1.70
2022-09-02T05:01:10.634Z,1.60
2022-09-02T05:01:31.269Z,1.70
2022-09-02T05:01:51.988Z,2.20
2022-09-02T05:02:12.793Z,1.50
2022-09-02T05:02:33.481Z,1.30
2022-09-02T05:02:54.259Z,1.50
2022-09-02T05:03:14.881Z,1.70
2022-09-02T05:03:35.466Z,1.90
2022-09-02T05:03:56.056Z,1.50
2022-09-02T05:04:16.626Z,1.80
2022-09-02T05:04:37.208Z,1.70
2022-09-02T05:04:57.789Z,1.40
2022-09-02T05:05:18.369Z,2.30
2022-09-02T05:05:38.953Z,1.80
2022-09-02T05:05:59.538Z,1.80
2022-09-02T05:06:20.124Z,2.40
2022-09-02T05:06:44.380Z,2.30
2022-09-02T05:07:05.289Z,2.20
2022-09-02T05:07:25.867Z,1.30
2022-09-02T05:07:46.455Z,2.10
2022-09-02T05:08:07.052Z,2.50
2022-09-02T05:08:27.633Z,2.40
2022-09-02T05:08:48.215Z,1.20
2022-09-02T05:09:08.796Z,1.00
2022-09-02T05:09:29.378Z,1.00
2022-09-02T05:09:50.469Z,1.00
2022-09-02T05:10:11.299Z,1.50
2022-09-02T05:10:31.884Z,1.40
2022-09-02T05:10:52.469Z,1.50
2022-09-02T05:11:13.052Z,1.60
2022-09-02T05:11:33.634Z,1.70
2022-09-02T05:11:54.216Z,2.10
2022-09-02T05:12:14.798Z,2.20
2022-09-02T05:12:35.526Z,1.10
2022-09-02T05:12:56.090Z,1.60
2022-09-02T05:13:16.670Z,2.30
2022-09-02T05:13:39.264Z,1.70
2022-09-02T05:13:59.843Z,2.40
2022-09-02T05:14:20.432Z,1.80
2022-09-02T05:14:41.012Z,1.80
2022-09-02T05:15:01.594Z,2.00
2022-09-02T05:15:22.176Z,2.00
2022-09-02T05:15:42.779Z,1.60
2022-09-02T05:16:03.429Z,3.40
2022-09-02T05:16:24.087Z,2.40
2022-09-02T05:16:44.649Z,2.60
2022-09-02T05:17:07.693Z,3.90
2022-09-02T05:17:28.561Z,5.60
2022-09-02T05:17:49.160Z,6.80
2022-09-02T05:18:09.746Z,5.20
2022-09-02T05:18:30.336Z,7.60
2022-09-02T05:18:50.915Z,5.80
2022-09-02T05:19:11.499Z,6.80
2022-09-02T05:19:34.163Z,8.80
2022-09-02T05:19:54.746Z,7.00
2022-09-02T05:20:15.328Z,5.20
2022-09-02T05:20:35.726Z,8.00
2022-09-02T05:20:56.303Z,9.30
2022-09-02T05:21:16.888Z,4.80
2022-09-02T05:21:37.471Z,3.60
2022-09-02T05:21:58.056Z,3.20
2022-09-02T05:22:18.635Z,4.20
2022-09-02T05:22:39.214Z,4.60
2022-09-02T05:22:59.814Z,2.90
2022-09-02T05:23:20.471Z,4.30
2022-09-02T05:23:41.017Z,2.20
2022-09-02T05:24:01.595Z,1.90
2022-09-02T05:24:26.471Z,2.30
2022-09-02T05:24:42.285Z,1.90
2022-09-02T05:25:02.865Z,2.80
2022-09-02T05:25:23.449Z,2.00
2022-09-02T05:25:44.035Z,1.70
2022-09-02T05:26:04.610Z,2.00
2022-09-02T05:26:25.188Z,1.80
2022-09-02T05:26:45.774Z,2.40
2022-09-02T05:27:06.352Z,2.90
2022-09-02T05:27:26.960Z,2.20
2022-09-02T05:27:47.529Z,1.10
2022-09-02T05:28:07.935Z,1.60
2022-09-02T05:28:28.514Z,1.80
2022-09-02T05:28:49.101Z,1.40
2022-09-02T05:29:09.680Z,2.10
2022-09-02T05:29:30.266Z,1.50
2022-09-02T05:29:50.846Z,1.70
2022-09-02T05:30:11.433Z,2.00
2022-09-02T05:30:32.015Z,2.10
2022-09-02T05:30:52.715Z,1.70
2022-09-02T05:31:13.324Z,1.90
2022-09-02T05:31:33.947Z,0.80
2022-09-02T05:31:54.529Z,1.10
2022-09-02T05:32:15.110Z,1.90
2022-09-02T05:32:38.031Z,2.00
2022-09-02T05:32:58.719Z,1.20
2022-09-02T05:33:19.312Z,1.40
2022-09-02T05:33:39.896Z,2.00
2022-09-02T05:34:00.605Z,3.10
2022-09-02T05:34:21.190Z,3.80
2022-09-02T05:34:41.786Z,4.20
2022-09-02T05:35:02.360Z,4.80
2022-09-02T05:35:22.943Z,1.80
2022-09-02T05:35:45.474Z,1.80
2022-09-02T05:36:06.520Z,1.70
2022-09-02T05:36:27.107Z,1.20
2022-09-02T05:36:47.686Z,2.40
2022-09-02T05:37:08.271Z,3.00
2022-09-02T05:37:28.851Z,2.40
2022-09-02T05:37:49.436Z,1.70
2022-09-02T05:38:10.034Z,1.40
2022-09-02T05:38:30.623Z,2.40
2022-09-02T05:38:51.200Z,1.40
2022-09-02T05:39:11.599Z,1.80
2022-09-02T05:39:32.180Z,4.00
2022-09-02T05:39:52.764Z,3.30
2022-09-02T05:40:14.899Z,1.60
2022-09-02T05:40:35.701Z,2.00
2022-09-02T05:40:56.150Z,2.50
2022-09-02T05:41:16.764Z,2.70
2022-09-02T05:41:37.352Z,2.00
2022-09-02T05:41:57.934Z,2.30
2022-09-02T05:42:18.518Z,2.60
2022-09-02T05:42:39.108Z,2.40
2022-09-02T05:42:59.500Z,3.20
2022-09-02T05:43:20.218Z,4.50
2022-09-02T05:43:40.787Z,3.90
2022-09-02T05:44:03.464Z,3.00
2022-09-02T05:44:24.273Z,4.50
2022-09-02T05:44:44.861Z,6.90
2022-09-02T05:45:05.448Z,7.20
2022-09-02T05:45:26.032Z,6.40
2022-09-02T05:45:46.652Z,6.50
2022-09-02T05:46:07.218Z,6.70
2022-09-02T05:46:27.651Z,5.60
2022-09-02T05:46:49.141Z,6.50
2022-09-02T05:47:08.599Z,4.90
2022-09-02T05:47:29.179Z,5.30
2022-09-02T05:47:50.273Z,4.90
2022-09-02T05:48:10.869Z,4.60
2022-09-02T05:48:31.453Z,4.20
2022-09-02T05:48:52.033Z,5.40
2022-09-02T05:49:12.612Z,8.30
2022-09-02T05:49:33.196Z,7.70
2022-09-02T05:49:53.789Z,6.50
2022-09-02T05:50:14.438Z,7.70
2022-09-02T05:50:34.988Z,4.20
2022-09-02T05:50:58.487Z,4.60
2022-09-02T05:51:19.177Z,5.50
2022-09-02T05:51:39.755Z,6.10
2022-09-02T05:52:00.336Z,7.00
2022-09-02T05:52:20.922Z,2.80
2022-09-02T05:52:41.501Z,3.20
2022-09-02T05:53:02.098Z,4.20
2022-09-02T05:53:22.698Z,2.90
2022-09-02T05:53:43.270Z,2.80
2022-09-02T05:54:03.856Z,2.70
2022-09-02T05:54:24.437Z,2.70
2022-09-02T05:54:45.023Z,2.60
2022-09-02T05:55:05.601Z,1.70
2022-09-02T05:55:26.000Z,2.70
2022-09-02T05:55:46.582Z,3.90
2022-09-02T05:56:07.163Z,4.60
2022-09-02T05:56:27.750Z,4.90
2022-09-02T05:56:48.327Z,2.00
2022-09-02T05:57:08.726Z,2.10
2022-09-02T05:57:29.309Z,3.40
2022-09-02T05:57:49.897Z,3.80
2022-09-02T05:58:10.491Z,4.00
2022-09-02T05:58:31.080Z,3.10
2022-09-02T05:58:51.660Z,3.10
2022-09-02T05:59:12.243Z,2.90
2022-09-02T05:59:32.821Z,2.10
2022-09-02T05:59:53.407Z,1.90
2022-09-02T06:00:17.661Z,2.00
2022-09-02T06:00:38.824Z,2.00
2022-09-02T06:00:59.413Z,3.10
2022-09-02T06:01:20.195Z,3.50
2022-09-02T06:01:40.936Z,3.10
2022-09-02T06:02:01.551Z,3.80
2022-09-02T06:02:22.277Z,2.90
2022-09-02T06:02:43.002Z,3.40
2022-09-02T06:03:03.666Z,4.00
2022-09-02T06:03:24.375Z,4.10
2022-09-02T06:03:45.010Z,3.10
2022-09-02T06:04:05.592Z,3.20
2022-09-02T06:04:26.172Z,2.80
2022-09-02T06:04:46.752Z,2.90
2022-09-02T06:05:07.330Z,2.90
2022-09-02T06:05:27.913Z,3.30
2022-09-02T06:05:48.495Z,4.20
2022-09-02T06:06:09.095Z,3.20
2022-09-02T06:06:29.679Z,1.40
2022-09-02T06:06:50.266Z,2.20
2022-09-02T06:07:11.726Z,3.00
2022-09-02T06:07:31.055Z,2.90
2022-09-02T06:07:51.634Z,4.20
2022-09-02T06:08:12.238Z,3.70
2022-09-02T06:08:32.815Z,2.80
2022-09-02T06:08:53.397Z,2.40
2022-09-02T06:09:13.981Z,3.70
2022-09-02T06:09:34.563Z,2.20
2022-09-02T06:09:55.148Z,2.10
2022-09-02T06:10:15.731Z,2.70
2022-09-02T06:10:36.121Z,4.50
2022-09-02T06:10:56.708Z,4.60
2022-09-02T06:11:17.291Z,3.80
2022-09-02T06:11:37.875Z,2.80
2022-09-02T06:11:58.456Z,2.40
2022-09-02T06:12:18.851Z,1.50
2022-09-02T06:12:42.625Z,1.50
2022-09-02T06:12:59.832Z,2.50
2022-09-02T06:13:20.494Z,2.50
2022-09-02T06:13:41.074Z,2.00
2022-09-02T06:14:01.660Z,1.50
2022-09-02T06:14:22.244Z,2.20
2022-09-02T06:14:42.822Z,3.20
2022-09-02T06:15:03.401Z,3.70
2022-09-02T06:15:23.984Z,2.00
2022-09-02T06:15:44.659Z,3.10
2022-09-02T06:16:05.277Z,5.10
2022-09-02T06:16:25.919Z,3.20
2022-09-02T06:16:46.488Z,3.60
2022-09-02T06:17:07.049Z,4.40
2022-09-02T06:17:27.632Z,4.10
2022-09-02T06:17:48.930Z,2.10
2022-09-02T06:18:09.527Z,2.80
2022-09-02T06:18:29.924Z,3.50
2022-09-02T06:18:50.492Z,4.20
2022-09-02T06:19:11.125Z,3.90
2022-09-02T06:19:31.664Z,2.80
2022-09-02T06:19:52.694Z,3.10
2022-09-02T06:20:13.513Z,2.20
2022-09-02T06:20:34.105Z,1.80
2022-09-02T06:20:54.680Z,2.30
2022-09-02T06:21:15.080Z,3.10
2022-09-02T06:21:35.670Z,2.50
2022-09-02T06:21:56.255Z,3.10
2022-09-02T06:22:16.831Z,2.70
2022-09-02T06:22:37.227Z,1.90
2022-09-02T06:22:57.806Z,1.40
2022-09-02T06:23:18.327Z,2.20
2022-09-02T06:23:38.925Z,3.00
2022-09-02T06:23:59.513Z,1.90
2022-09-02T06:24:20.098Z,2.10
2022-09-02T06:24:40.678Z,2.20
2022-09-02T06:25:01.253Z,2.30
2022-09-02T06:25:21.838Z,2.10
2022-09-02T06:25:42.420Z,2.20
2022-09-02T06:26:03.024Z,1.30
2022-09-02T06:26:23.592Z,1.90
2022-09-02T06:26:44.172Z,2.00
2022-09-02T06:27:04.753Z,1.60
2022-09-02T06:27:25.337Z,1.30
2022-09-02T06:27:45.726Z,1.80
2022-09-02T06:28:07.454Z,2.80
2022-09-02T06:28:28.109Z,2.50
2022-09-02T06:28:48.696Z,4.00
2022-09-02T06:29:09.279Z,3.00
2022-09-02T06:29:29.867Z,3.50
2022-09-02T06:29:50.446Z,3.50
2022-09-02T06:30:11.030Z,3.70
2022-09-02T06:30:31.611Z,4.00
2022-09-02T06:30:52.236Z,2.60
2022-09-02T06:31:12.843Z,4.50
2022-09-02T06:31:34.593Z,3.40
2022-09-02T06:31:55.401Z,2.40
2022-09-02T06:32:15.800Z,2.00
2022-09-02T06:32:36.198Z,2.50
2022-09-02T06:32:56.781Z,1.60
2022-09-02T06:33:17.462Z,2.10
2022-09-02T06:33:38.029Z,1.30
2022-09-02T06:33:58.612Z,2.00
2022-09-02T06:34:19.355Z,1.90
2022-09-02T06:34:39.938Z,1.80
2022-09-02T06:35:00.522Z,2.10
2022-09-02T06:35:21.106Z,1.50
2022-09-02T06:35:41.694Z,2.60
2022-09-02T06:36:02.272Z,3.00
2022-09-02T06:36:22.855Z,2.40
2022-09-02T06:36:43.263Z,2.70
2022-09-02T06:37:03.960Z,1.70
2022-09-02T06:37:24.588Z,4.20
2022-09-02T06:37:45.724Z,3.60
2022-09-02T06:38:06.318Z,3.50
2022-09-02T06:38:26.901Z,3.90
2022-09-02T06:38:47.490Z,2.50
2022-09-02T06:39:08.079Z,1.60
2022-09-02T06:39:28.666Z,1.90
2022-09-02T06:39:49.252Z,2.00